sensor_id;sensor_type;location;lat;lon;timestamp;pressure;altitude;pressure_sealevel;temperature;humidity
12781;BME280;6454;43.304;24.344;2023-04-27T00:01:20;99990.66;;;11.69;68.27
12781;BME280;6454;43.304;24.344;2023-04-27T00:03:47;100041.88;;;12.08;68.44
12781;BME280;6454;43.304;24.344;2023-04-27T00:06:14;100038.66;;;12.06;69.56
12781;BME280;6454;43.304;24.344;2023-04-27T00:08:42;100041.38;;;12.06;69.92
12781;BME280;6454;43.304;24.344;2023-04-27T00:11:09;100049.94;;;12.13;70.14
12781;BME280;6454;43.304;24.344;2023-04-27T00:13:35;100053.09;;;12.20;70.17
12781;BME280;6454;43.304;24.344;2023-04-27T00:16:02;100048.56;;;12.29;70.53
12781;BME280;6454;43.304;24.344;2023-04-27T00:18:29;100052.69;;;12.26;70.47
12781;BME280;6454;43.304;24.344;2023-04-27T00:20:57;100047.78;;;12.28;71.00
12781;BME280;6454;43.304;24.344;2023-04-27T00:23:24;100048.38;;;12.25;71.32
12781;BME280;6454;43.304;24.344;2023-04-27T00:25:53;100050.69;;;12.32;70.94
12781;BME280;6454;43.304;24.344;2023-04-27T00:28:20;100033.03;;;12.29;72.24
12781;BME280;6454;43.304;24.344;2023-04-27T00:30:47;100017.72;;;12.20;72.76
12781;BME280;6454;43.304;24.344;2023-04-27T00:33:16;99997.16;;;12.00;73.53
12781;BME280;6454;43.304;24.344;2023-04-27T00:35:43;100048.88;;;12.27;74.40
12781;BME280;6454;43.304;24.344;2023-04-27T00:38:10;100050.91;;;12.36;70.82
12781;BME280;6454;43.304;24.344;2023-04-27T00:40:37;100047.97;;;12.32;73.02
12781;BME280;6454;43.304;24.344;2023-04-27T00:43:05;100048.56;;;12.29;73.23
12781;BME280;6454;43.304;24.344;2023-04-27T00:45:40;100057.44;;;12.21;73.31
12781;BME280;6454;43.304;24.344;2023-04-27T00:48:08;100056.81;;;12.24;73.62
12781;BME280;6454;43.304;24.344;2023-04-27T00:50:35;100050.50;;;12.28;73.48
12781;BME280;6454;43.304;24.344;2023-04-27T00:53:04;100057.75;;;12.33;73.48
12781;BME280;6454;43.304;24.344;2023-04-27T00:55:31;100064.19;;;12.23;74.00
12781;BME280;6454;43.304;24.344;2023-04-27T00:57:58;100059.84;;;12.22;74.71
12781;BME280;6454;43.304;24.344;2023-04-27T01:00:26;100063.84;;;12.11;76.24
12781;BME280;6454;43.304;24.344;2023-04-27T01:02:54;100070.72;;;12.22;76.38
12781;BME280;6454;43.304;24.344;2023-04-27T01:05:20;100059.09;;;12.17;76.44
12781;BME280;6454;43.304;24.344;2023-04-27T01:07:48;100060.59;;;12.09;77.14
12781;BME280;6454;43.304;24.344;2023-04-27T01:10:15;100061.59;;;12.00;78.31
12781;BME280;6454;43.304;24.344;2023-04-27T01:12:42;100066.66;;;12.06;78.65
12781;BME280;6454;43.304;24.344;2023-04-27T01:15:10;100058.53;;;11.88;78.43
12781;BME280;6454;43.304;24.344;2023-04-27T01:17:38;99947.91;;;11.24;78.01
12781;BME280;6454;43.304;24.344;2023-04-27T01:20:06;100070.81;;;11.85;78.67
12781;BME280;6454;43.304;24.344;2023-04-27T01:22:35;100064.06;;;11.83;77.10
12781;BME280;6454;43.304;24.344;2023-04-27T01:25:03;100052.16;;;11.60;77.72
12781;BME280;6454;43.304;24.344;2023-04-27T01:27:31;100071.13;;;11.84;76.07
12781;BME280;6454;43.304;24.344;2023-04-27T01:29:58;100074.63;;;11.84;74.98
12781;BME280;6454;43.304;24.344;2023-04-27T01:32:24;100073.38;;;11.77;75.57
12781;BME280;6454;43.304;24.344;2023-04-27T01:34:51;100034.91;;;11.51;75.65
12781;BME280;6454;43.304;24.344;2023-04-27T01:37:18;100078.91;;;11.72;75.30
12781;BME280;6454;43.304;24.344;2023-04-27T01:39:45;100077.28;;;11.71;73.39
12781;BME280;6454;43.304;24.344;2023-04-27T01:42:13;100079.69;;;11.72;72.07
12781;BME280;6454;43.304;24.344;2023-04-27T01:44:41;100086.00;;;11.68;73.14
12781;BME280;6454;43.304;24.344;2023-04-27T01:47:08;100076.53;;;11.65;74.18
12781;BME280;6454;43.304;24.344;2023-04-27T01:49:35;100081.63;;;11.72;73.94
12781;BME280;6454;43.304;24.344;2023-04-27T01:52:02;100089.69;;;11.77;73.61
12781;BME280;6454;43.304;24.344;2023-04-27T01:54:29;100086.47;;;11.75;73.73
12781;BME280;6454;43.304;24.344;2023-04-27T01:56:56;100086.31;;;11.66;74.73
12781;BME280;6454;43.304;24.344;2023-04-27T01:59:25;100084.31;;;11.53;75.65
12781;BME280;6454;43.304;24.344;2023-04-27T02:01:52;100089.97;;;11.56;75.64
12781;BME280;6454;43.304;24.344;2023-04-27T02:04:19;100084.31;;;11.53;75.54
12781;BME280;6454;43.304;24.344;2023-04-27T02:06:46;100086.97;;;11.58;75.35
12781;BME280;6454;43.304;24.344;2023-04-27T02:09:13;100087.69;;;11.45;76.46
12781;BME280;6454;43.304;24.344;2023-04-27T02:11:39;100090.47;;;11.40;77.00
12781;BME280;6454;43.304;24.344;2023-04-27T02:14:07;99963.94;;;10.64;76.66
12781;BME280;6454;43.304;24.344;2023-04-27T02:16:35;100099.75;;;11.39;76.42
12781;BME280;6454;43.304;24.344;2023-04-27T02:19:02;100101.97;;;11.32;75.92
12781;BME280;6454;43.304;24.344;2023-04-27T02:21:29;100041.25;;;10.85;76.78
12781;BME280;6454;43.304;24.344;2023-04-27T02:23:56;100096.19;;;11.20;77.21
12781;BME280;6454;43.304;24.344;2023-04-27T02:26:23;100093.25;;;11.16;76.78
12781;BME280;6454;43.304;24.344;2023-04-27T02:28:54;100094.41;;;11.10;77.04
12781;BME280;6454;43.304;24.344;2023-04-27T02:31:22;100101.06;;;10.99;77.72
12781;BME280;6454;43.304;24.344;2023-04-27T02:33:50;100103.59;;;10.90;78.16
12781;BME280;6454;43.304;24.344;2023-04-27T02:36:17;100107.66;;;10.93;77.27
12781;BME280;6454;43.304;24.344;2023-04-27T02:38:44;100114.16;;;10.92;77.46
12781;BME280;6454;43.304;24.344;2023-04-27T02:41:10;100112.84;;;10.89;77.10
12781;BME280;6454;43.304;24.344;2023-04-27T02:43:37;100106.28;;;10.72;77.86
12781;BME280;6454;43.304;24.344;2023-04-27T02:46:04;100110.69;;;10.63;78.47
12781;BME280;6454;43.304;24.344;2023-04-27T02:48:32;100114.22;;;10.63;78.36
12781;BME280;6454;43.304;24.344;2023-04-27T02:51:02;100111.31;;;10.55;78.60
12781;BME280;6454;43.304;24.344;2023-04-27T02:53:29;100127.47;;;10.41;79.65
12781;BME280;6454;43.304;24.344;2023-04-27T02:55:56;100121.28;;;10.35;80.12
12781;BME280;6454;43.304;24.344;2023-04-27T02:58:23;100127.25;;;10.32;80.60
12781;BME280;6454;43.304;24.344;2023-04-27T03:00:53;100052.41;;;9.74;79.75
12781;BME280;6454;43.304;24.344;2023-04-27T03:03:20;100074.16;;;9.98;80.19
12781;BME280;6454;43.304;24.344;2023-04-27T03:05:47;100124.13;;;10.20;80.92
12781;BME280;6454;43.304;24.344;2023-04-27T03:08:15;100115.00;;;10.06;81.23
12781;BME280;6454;43.304;24.344;2023-04-27T03:10:42;100122.59;;;10.09;81.54
12781;BME280;6454;43.304;24.344;2023-04-27T03:13:09;100128.78;;;10.15;80.94
12781;BME280;6454;43.304;24.344;2023-04-27T03:15:36;100133.94;;;10.11;80.79
12781;BME280;6454;43.304;24.344;2023-04-27T03:18:03;100133.97;;;10.06;80.47
12781;BME280;6454;43.304;24.344;2023-04-27T03:20:30;100124.84;;;9.92;80.58
12781;BME280;6454;43.304;24.344;2023-04-27T03:22:57;100139.63;;;9.76;81.68
12781;BME280;6454;43.304;24.344;2023-04-27T03:25:25;100140.13;;;9.78;81.58
12781;BME280;6454;43.304;24.344;2023-04-27T03:27:52;100144.72;;;9.83;81.09
12781;BME280;6454;43.304;24.344;2023-04-27T03:30:19;100142.28;;;9.81;80.97
12781;BME280;6454;43.304;24.344;2023-04-27T03:32:46;100144.50;;;9.74;80.91
12781;BME280;6454;43.304;24.344;2023-04-27T03:35:13;100148.84;;;9.70;81.09
12781;BME280;6454;43.304;24.344;2023-04-27T03:37:40;100151.34;;;9.66;81.11
12781;BME280;6454;43.304;24.344;2023-04-27T03:40:09;100148.34;;;9.63;80.17
12781;BME280;6454;43.304;24.344;2023-04-27T03:42:38;100152.41;;;9.65;79.80
12781;BME280;6454;43.304;24.344;2023-04-27T03:45:06;100152.13;;;9.72;79.98
12781;BME280;6454;43.304;24.344;2023-04-27T03:47:33;100157.56;;;9.67;80.24
12781;BME280;6454;43.304;24.344;2023-04-27T03:49:59;100156.44;;;9.68;80.28
12781;BME280;6454;43.304;24.344;2023-04-27T03:52:26;100155.34;;;9.74;80.96
12781;BME280;6454;43.304;24.344;2023-04-27T03:54:53;100158.84;;;9.80;80.79
12781;BME280;6454;43.304;24.344;2023-04-27T03:57:20;100167.22;;;9.78;81.22
12781;BME280;6454;43.304;24.344;2023-04-27T03:59:48;100092.00;;;9.26;81.66
12781;BME280;6454;43.304;24.344;2023-04-27T04:02:15;100184.34;;;9.68;82.63
12781;BME280;6454;43.304;24.344;2023-04-27T04:04:41;100166.25;;;9.64;82.78
12781;BME280;6454;43.304;24.344;2023-04-27T04:07:08;100175.38;;;9.73;81.80
12781;BME280;6454;43.304;24.344;2023-04-27T04:09:35;100179.16;;;9.82;81.41
12781;BME280;6454;43.304;24.344;2023-04-27T04:12:02;100180.78;;;9.78;81.65
12781;BME280;6454;43.304;24.344;2023-04-27T04:14:29;100177.53;;;9.76;82.26
12781;BME280;6454;43.304;24.344;2023-04-27T04:16:57;100178.34;;;9.77;82.20
12781;BME280;6454;43.304;24.344;2023-04-27T04:19:24;100189.91;;;9.87;81.92
12781;BME280;6454;43.304;24.344;2023-04-27T04:21:51;100189.63;;;9.94;81.13
12781;BME280;6454;43.304;24.344;2023-04-27T04:24:19;100186.59;;;10.00;81.26
12781;BME280;6454;43.304;24.344;2023-04-27T04:26:45;100192.81;;;10.01;81.94
12781;BME280;6454;43.304;24.344;2023-04-27T04:29:12;100189.53;;;10.09;81.24
12781;BME280;6454;43.304;24.344;2023-04-27T04:31:39;100197.34;;;10.15;81.61
12781;BME280;6454;43.304;24.344;2023-04-27T04:34:08;100188.59;;;10.28;81.02
12781;BME280;6454;43.304;24.344;2023-04-27T04:36:34;100193.94;;;10.39;81.71
12781;BME280;6454;43.304;24.344;2023-04-27T04:39:02;100189.03;;;10.41;81.87
12781;BME280;6454;43.304;24.344;2023-04-27T04:41:31;100197.16;;;10.41;81.71
12781;BME280;6454;43.304;24.344;2023-04-27T04:43:57;100190.66;;;10.42;80.68
12781;BME280;6454;43.304;24.344;2023-04-27T04:46:25;100195.50;;;10.45;78.57
12781;BME280;6454;43.304;24.344;2023-04-27T04:48:51;100200.81;;;10.55;76.20
12781;BME280;6454;43.304;24.344;2023-04-27T04:51:20;100201.34;;;10.62;75.74
12781;BME280;6454;43.304;24.344;2023-04-27T04:53:47;100203.19;;;10.66;75.16
12781;BME280;6454;43.304;24.344;2023-04-27T04:56:14;100213.13;;;10.76;74.88
12781;BME280;6454;43.304;24.344;2023-04-27T04:58:41;100219.50;;;10.90;72.83
12781;BME280;6454;43.304;24.344;2023-04-27T05:01:08;100216.47;;;10.96;70.65
12781;BME280;6454;43.304;24.344;2023-04-27T05:03:35;100218.09;;;10.92;70.53
12781;BME280;6454;43.304;24.344;2023-04-27T05:06:02;100228.19;;;10.87;69.32
12781;BME280;6454;43.304;24.344;2023-04-27T05:08:30;100223.88;;;10.86;68.51
12781;BME280;6454;43.304;24.344;2023-04-27T05:10:57;100222.78;;;10.87;67.84
12781;BME280;6454;43.304;24.344;2023-04-27T05:13:24;100236.28;;;10.92;66.60
12781;BME280;6454;43.304;24.344;2023-04-27T05:15:51;100234.13;;;10.94;67.93
12781;BME280;6454;43.304;24.344;2023-04-27T05:18:18;100238.72;;;10.93;67.50
12781;BME280;6454;43.304;24.344;2023-04-27T05:20:45;100242.47;;;10.97;67.82
12781;BME280;6454;43.304;24.344;2023-04-27T05:23:12;100244.06;;;11.04;68.55
12781;BME280;6454;43.304;24.344;2023-04-27T05:25:40;100240.22;;;11.05;68.28
12781;BME280;6454;43.304;24.344;2023-04-27T05:28:08;100244.78;;;11.14;68.24
12781;BME280;6454;43.304;24.344;2023-04-27T05:30:35;100225.94;;;10.99;66.96
12781;BME280;6454;43.304;24.344;2023-04-27T05:33:02;100213.97;;;11.00;66.54
12781;BME280;6454;43.304;24.344;2023-04-27T05:35:29;100251.25;;;11.18;66.35
12781;BME280;6454;43.304;24.344;2023-04-27T05:37:56;100257.47;;;11.19;66.57
12781;BME280;6454;43.304;24.344;2023-04-27T05:40:23;100250.88;;;11.25;66.09
12781;BME280;6454;43.304;24.344;2023-04-27T05:42:52;100252.22;;;11.27;65.63
12781;BME280;6454;43.304;24.344;2023-04-27T05:45:20;100202.47;;;11.08;64.30
12781;BME280;6454;43.304;24.344;2023-04-27T05:47:47;100242.56;;;11.40;64.39
12781;BME280;6454;43.304;24.344;2023-04-27T05:50:13;100022.16;;;9.96;64.93
12781;BME280;6454;43.304;24.344;2023-04-27T05:52:40;100157.84;;;10.95;64.36
12781;BME280;6454;43.304;24.344;2023-04-27T05:55:07;100261.72;;;11.53;64.55
12781;BME280;6454;43.304;24.344;2023-04-27T05:57:35;100259.00;;;11.53;64.33
12781;BME280;6454;43.304;24.344;2023-04-27T06:00:04;100257.38;;;11.52;63.99
12781;BME280;6454;43.304;24.344;2023-04-27T06:02:35;100254.75;;;11.66;63.74
12781;BME280;6454;43.304;24.344;2023-04-27T06:05:02;100231.94;;;11.43;62.83
12781;BME280;6454;43.304;24.344;2023-04-27T06:07:29;100268.63;;;11.64;63.76
12781;BME280;6454;43.304;24.344;2023-04-27T06:09:56;100268.63;;;11.64;63.40
12781;BME280;6454;43.304;24.344;2023-04-27T06:12:23;100266.19;;;11.68;64.44
12781;BME280;6454;43.304;24.344;2023-04-27T06:14:50;100213.47;;;11.22;64.29
12781;BME280;6454;43.304;24.344;2023-04-27T06:17:19;100269.94;;;11.67;64.10
12781;BME280;6454;43.304;24.344;2023-04-27T06:19:46;100268.94;;;11.63;63.24
12781;BME280;6454;43.304;24.344;2023-04-27T06:22:13;100270.81;;;11.62;62.95
12781;BME280;6454;43.304;24.344;2023-04-27T06:24:40;100273.91;;;11.80;62.95
12781;BME280;6454;43.304;24.344;2023-04-27T06:27:07;100265.47;;;11.81;61.92
12781;BME280;6454;43.304;24.344;2023-04-27T06:29:34;100264.09;;;11.84;63.54
12781;BME280;6454;43.304;24.344;2023-04-27T06:32:01;100271.69;;;11.82;62.82
12781;BME280;6454;43.304;24.344;2023-04-27T06:34:32;100270.31;;;11.84;62.58
12781;BME280;6454;43.304;24.344;2023-04-27T06:36:59;100195.00;;;11.42;61.48
12781;BME280;6454;43.304;24.344;2023-04-27T06:39:26;100022.22;;;10.43;61.16
12781;BME280;6454;43.304;24.344;2023-04-27T06:41:53;100234.66;;;11.43;61.78
12781;BME280;6454;43.304;24.344;2023-04-27T06:44:20;100256.44;;;11.86;60.86
12781;BME280;6454;43.304;24.344;2023-04-27T06:46:47;100255.88;;;11.89;61.11
12781;BME280;6454;43.304;24.344;2023-04-27T06:49:14;100254.09;;;11.98;63.07
12781;BME280;6454;43.304;24.344;2023-04-27T06:51:42;100266.53;;;12.04;61.19
12781;BME280;6454;43.304;24.344;2023-04-27T06:54:11;100252.88;;;12.09;61.78
12781;BME280;6454;43.304;24.344;2023-04-27T06:56:37;100155.44;;;11.36;61.37
12781;BME280;6454;43.304;24.344;2023-04-27T06:59:04;100258.88;;;12.24;61.20
12781;BME280;6454;43.304;24.344;2023-04-27T07:01:31;100259.09;;;12.28;61.52
12781;BME280;6454;43.304;24.344;2023-04-27T07:03:58;100264.41;;;12.38;61.81
12781;BME280;6454;43.304;24.344;2023-04-27T07:06:25;100293.13;;;12.44;59.93
12781;BME280;6454;43.304;24.344;2023-04-27T07:08:54;100242.63;;;12.38;60.10
12781;BME280;6454;43.304;24.344;2023-04-27T07:11:21;100262.44;;;12.57;59.45
12781;BME280;6454;43.304;24.344;2023-04-27T07:13:48;100269.94;;;12.65;60.24
12781;BME280;6454;43.304;24.344;2023-04-27T07:16:15;100161.94;;;12.15;58.77
12781;BME280;6454;43.304;24.344;2023-04-27T07:18:42;100172.44;;;12.21;59.06
12781;BME280;6454;43.304;24.344;2023-04-27T07:21:10;100255.50;;;12.83;57.76
12781;BME280;6454;43.304;24.344;2023-04-27T07:23:37;100135.13;;;12.08;59.18
12781;BME280;6454;43.304;24.344;2023-04-27T07:26:06;100259.56;;;13.00;58.98
12781;BME280;6454;43.304;24.344;2023-04-27T07:28:33;100277.44;;;13.06;58.86
12781;BME280;6454;43.304;24.344;2023-04-27T07:31:03;100266.97;;;13.13;58.78
12781;BME280;6454;43.304;24.344;2023-04-27T07:33:30;100268.28;;;13.15;58.67
12781;BME280;6454;43.304;24.344;2023-04-27T07:35:57;100245.31;;;12.89;59.21
12781;BME280;6454;43.304;24.344;2023-04-27T07:38:24;100267.50;;;13.28;57.50
12781;BME280;6454;43.304;24.344;2023-04-27T07:40:53;99952.94;;;11.30;57.48
12781;BME280;6454;43.304;24.344;2023-04-27T07:43:22;100120.50;;;12.37;59.16
12781;BME280;6454;43.304;24.344;2023-04-27T07:45:50;100268.91;;;13.39;59.49
12781;BME280;6454;43.304;24.344;2023-04-27T07:48:17;100265.59;;;13.42;58.32
12781;BME280;6454;43.304;24.344;2023-04-27T07:50:44;100214.94;;;13.28;58.57
12781;BME280;6454;43.304;24.344;2023-04-27T07:53:11;100266.13;;;13.58;57.89
12781;BME280;6454;43.304;24.344;2023-04-27T07:55:38;100262.47;;;13.63;58.26
12781;BME280;6454;43.304;24.344;2023-04-27T07:58:05;100260.47;;;13.68;59.20
12781;BME280;6454;43.304;24.344;2023-04-27T08:00:33;100204.44;;;13.35;57.25
12781;BME280;6454;43.304;24.344;2023-04-27T08:03:00;100083.84;;;12.48;57.51
12781;BME280;6454;43.304;24.344;2023-04-27T08:05:27;100268.31;;;13.83;56.91
12781;BME280;6454;43.304;24.344;2023-04-27T08:07:54;100265.44;;;14.02;57.36
12781;BME280;6454;43.304;24.344;2023-04-27T08:10:21;100277.38;;;14.06;56.47
12781;BME280;6454;43.304;24.344;2023-04-27T08:12:48;100035.59;;;12.53;57.91
12781;BME280;6454;43.304;24.344;2023-04-27T08:15:16;100110.22;;;13.07;57.53
12781;BME280;6454;43.304;24.344;2023-04-27T08:17:44;100210.25;;;13.69;58.11
12781;BME280;6454;43.304;24.344;2023-04-27T08:20:11;100262.69;;;14.15;58.32
12781;BME280;6454;43.304;24.344;2023-04-27T08:22:39;100005.03;;;12.29;57.53
12781;BME280;6454;43.304;24.344;2023-04-27T08:25:07;100113.16;;;13.10;55.47
12781;BME280;6454;43.304;24.344;2023-04-27T08:27:36;100100.59;;;12.82;57.43
12781;BME280;6454;43.304;24.344;2023-04-27T08:30:03;100090.13;;;12.89;58.09
12781;BME280;6454;43.304;24.344;2023-04-27T08:32:31;100251.81;;;14.02;56.66
12781;BME280;6454;43.304;24.344;2023-04-27T08:34:59;100271.66;;;14.16;57.30
12781;BME280;6454;43.304;24.344;2023-04-27T08:37:26;100039.31;;;12.84;56.55
12781;BME280;6454;43.304;24.344;2023-04-27T08:39:53;100080.06;;;13.17;55.59
12781;BME280;6454;43.304;24.344;2023-04-27T08:42:20;100030.44;;;12.79;54.59
12781;BME280;6454;43.304;24.344;2023-04-27T08:44:47;100126.53;;;13.47;55.88
12781;BME280;6454;43.304;24.344;2023-04-27T08:47:14;100063.59;;;13.22;56.57
12781;BME280;6454;43.304;24.344;2023-04-27T08:49:41;100222.84;;;14.28;55.51
12781;BME280;6454;43.304;24.344;2023-04-27T08:52:12;100245.25;;;14.39;56.09
12781;BME280;6454;43.304;24.344;2023-04-27T08:54:40;100051.78;;;13.26;55.16
12781;BME280;6454;43.304;24.344;2023-04-27T08:57:16;100133.91;;;13.83;54.82
12781;BME280;6454;43.304;24.344;2023-04-27T08:59:43;100248.75;;;14.53;57.35
12781;BME280;6454;43.304;24.344;2023-04-27T09:02:17;100252.84;;;14.64;55.78
12781;BME280;6454;43.304;24.344;2023-04-27T09:04:45;100250.22;;;14.81;56.58
12781;BME280;6454;43.304;24.344;2023-04-27T09:07:14;100133.84;;;13.96;57.29
12781;BME280;6454;43.304;24.344;2023-04-27T09:09:42;100255.69;;;14.81;54.62
12781;BME280;6454;43.304;24.344;2023-04-27T09:12:16;100248.88;;;14.70;55.91
12781;BME280;6454;43.304;24.344;2023-04-27T09:14:52;100247.75;;;14.71;54.30
12781;BME280;6454;43.304;24.344;2023-04-27T09:17:23;100240.19;;;14.68;55.20
12781;BME280;6454;43.304;24.344;2023-04-27T09:19:50;100242.41;;;14.66;54.33
12781;BME280;6454;43.304;24.344;2023-04-27T09:22:19;100241.63;;;14.65;55.84
12781;BME280;6454;43.304;24.344;2023-04-27T09:24:52;100098.19;;;13.71;56.17
12781;BME280;6454;43.304;24.344;2023-04-27T09:27:19;100244.97;;;14.62;55.85
12781;BME280;6454;43.304;24.344;2023-04-27T09:29:47;100222.56;;;14.52;57.52
12781;BME280;6454;43.304;24.344;2023-04-27T09:32:14;100123.44;;;13.98;55.37
12781;BME280;6454;43.304;24.344;2023-04-27T09:34:42;100243.88;;;14.94;56.48
12781;BME280;6454;43.304;24.344;2023-04-27T09:37:09;100252.50;;;15.10;55.94
12781;BME280;6454;43.304;24.344;2023-04-27T09:39:37;100234.81;;;15.16;55.02
12781;BME280;6454;43.304;24.344;2023-04-27T09:42:05;100227.91;;;15.18;55.93
12781;BME280;6454;43.304;24.344;2023-04-27T09:44:34;100226.72;;;15.33;55.63
12781;BME280;6454;43.304;24.344;2023-04-27T09:47:01;100217.16;;;15.53;54.67
12781;BME280;6454;43.304;24.344;2023-04-27T09:49:28;100215.88;;;15.59;54.24
12781;BME280;6454;43.304;24.344;2023-04-27T09:51:55;100209.78;;;15.62;53.38
12781;BME280;6454;43.304;24.344;2023-04-27T09:54:25;100030.47;;;14.31;52.28
12781;BME280;6454;43.304;24.344;2023-04-27T09:57:02;100213.41;;;15.40;52.59
12781;BME280;6454;43.304;24.344;2023-04-27T09:59:46;100217.03;;;15.27;54.52
12781;BME280;6454;43.304;24.344;2023-04-27T10:02:16;100203.72;;;15.25;54.43
12781;BME280;6454;43.304;24.344;2023-04-27T10:08:02;99894.97;;;13.34;52.88
12781;BME280;6454;43.304;24.344;2023-04-27T10:10:41;100215.13;;;15.27;52.76
12781;BME280;6454;43.304;24.344;2023-04-27T10:13:19;100200.97;;;15.25;52.64
12781;BME280;6454;43.304;24.344;2023-04-27T10:15:47;100144.31;;;14.69;52.75
12781;BME280;6454;43.304;24.344;2023-04-27T10:18:24;100181.41;;;15.01;51.74
12781;BME280;6454;43.304;24.344;2023-04-27T10:20:53;100196.44;;;15.21;54.08
12781;BME280;6454;43.304;24.344;2023-04-27T10:23:24;100189.56;;;15.32;53.40
12781;BME280;6454;43.304;24.344;2023-04-27T10:25:52;100118.84;;;14.91;52.70
12781;BME280;6454;43.304;24.344;2023-04-27T10:28:20;100190.38;;;15.41;53.00
12781;BME280;6454;43.304;24.344;2023-04-27T10:30:49;100042.75;;;14.50;52.69
12781;BME280;6454;43.304;24.344;2023-04-27T10:33:17;100190.25;;;15.37;53.32
12781;BME280;6454;43.304;24.344;2023-04-27T10:35:54;100050.41;;;14.17;54.62
12781;BME280;6454;43.304;24.344;2023-04-27T10:38:26;100197.44;;;15.25;53.63
12781;BME280;6454;43.304;24.344;2023-04-27T10:40:55;100087.22;;;14.51;52.76
12781;BME280;6454;43.304;24.344;2023-04-27T10:43:25;100162.47;;;15.05;53.85
12781;BME280;6454;43.304;24.344;2023-04-27T10:45:53;100082.88;;;14.50;54.55
12781;BME280;6454;43.304;24.344;2023-04-27T10:48:20;100158.94;;;15.04;55.21
12781;BME280;6454;43.304;24.344;2023-04-27T10:50:49;100072.31;;;14.57;55.54
12781;BME280;6454;43.304;24.344;2023-04-27T10:53:16;100187.94;;;15.31;54.87
12781;BME280;6454;43.304;24.344;2023-04-27T10:55:43;100173.56;;;15.48;54.81
12781;BME280;6454;43.304;24.344;2023-04-27T10:58:11;100182.19;;;15.41;53.62
12781;BME280;6454;43.304;24.344;2023-04-27T11:00:40;100193.78;;;15.38;52.73
12781;BME280;6454;43.304;24.344;2023-04-27T11:03:11;100188.00;;;15.39;52.14
12781;BME280;6454;43.304;24.344;2023-04-27T11:05:39;100065.34;;;14.42;53.11
12781;BME280;6454;43.304;24.344;2023-04-27T11:08:08;100189.97;;;15.56;52.27
12781;BME280;6454;43.304;24.344;2023-04-27T11:10:38;100187.03;;;15.44;52.90
12781;BME280;6454;43.304;24.344;2023-04-27T11:13:07;100181.38;;;15.32;51.75
12781;BME280;6454;43.304;24.344;2023-04-27T11:15:43;100178.97;;;15.30;51.11
12781;BME280;6454;43.304;24.344;2023-04-27T11:18:11;100173.84;;;15.37;50.51
12781;BME280;6454;43.304;24.344;2023-04-27T11:20:37;100052.44;;;14.65;49.43
12781;BME280;6454;43.304;24.344;2023-04-27T11:23:04;100183.00;;;15.41;49.72
12781;BME280;6454;43.304;24.344;2023-04-27T11:25:31;100177.91;;;15.48;50.14
12781;BME280;6454;43.304;24.344;2023-04-27T11:27:58;100055.38;;;14.77;49.43
12781;BME280;6454;43.304;24.344;2023-04-27T11:30:25;100178.91;;;15.61;48.49
12781;BME280;6454;43.304;24.344;2023-04-27T11:32:53;100171.53;;;15.79;48.55
12781;BME280;6454;43.304;24.344;2023-04-27T11:35:31;100114.38;;;15.43;49.05
12781;BME280;6454;43.304;24.344;2023-04-27T11:37:58;100174.75;;;15.81;47.85
12781;BME280;6454;43.304;24.344;2023-04-27T11:40:25;100180.53;;;15.79;47.83
12781;BME280;6454;43.304;24.344;2023-04-27T11:42:57;100187.13;;;15.78;46.29
12781;BME280;6454;43.304;24.344;2023-04-27T11:45:25;100115.28;;;15.30;46.39
12781;BME280;6454;43.304;24.344;2023-04-27T11:47:57;100147.47;;;15.41;48.80
12781;BME280;6454;43.304;24.344;2023-04-27T11:50:24;100187.09;;;15.61;48.90
12781;BME280;6454;43.304;24.344;2023-04-27T11:52:51;100031.47;;;14.43;48.59
12781;BME280;6454;43.304;24.344;2023-04-27T11:55:20;100190.47;;;15.50;50.62
12781;BME280;6454;43.304;24.344;2023-04-27T11:57:46;100190.72;;;15.39;50.09
12781;BME280;6454;43.304;24.344;2023-04-27T12:00:14;100167.66;;;15.23;50.51
12781;BME280;6454;43.304;24.344;2023-04-27T12:02:42;100182.19;;;15.41;49.02
12781;BME280;6454;43.304;24.344;2023-04-27T12:05:11;100180.91;;;15.38;48.95
12781;BME280;6454;43.304;24.344;2023-04-27T12:07:38;100185.25;;;15.39;49.14
12781;BME280;6454;43.304;24.344;2023-04-27T12:10:06;100185.63;;;15.46;49.37
12781;BME280;6454;43.304;24.344;2023-04-27T12:12:33;100183.22;;;15.45;47.85
12781;BME280;6454;43.304;24.344;2023-04-27T12:15:02;100174.13;;;15.36;47.62
12781;BME280;6454;43.304;24.344;2023-04-27T12:17:35;99919.50;;;13.56;47.33
12781;BME280;6454;43.304;24.344;2023-04-27T12:20:14;99932.44;;;13.81;48.10
12781;BME280;6454;43.304;24.344;2023-04-27T12:22:40;100181.50;;;15.27;48.69
12781;BME280;6454;43.304;24.344;2023-04-27T12:25:07;100181.84;;;15.25;49.29
12781;BME280;6454;43.304;24.344;2023-04-27T12:27:34;100191.63;;;15.26;50.01
12781;BME280;6454;43.304;24.344;2023-04-27T12:30:01;100061.25;;;14.62;50.31
12781;BME280;6454;43.304;24.344;2023-04-27T12:32:29;99965.09;;;13.95;50.35
12781;BME280;6454;43.304;24.344;2023-04-27T12:34:56;100193.34;;;15.53;46.69
12781;BME280;6454;43.304;24.344;2023-04-27T12:37:25;100154.38;;;15.30;47.29
12781;BME280;6454;43.304;24.344;2023-04-27T12:39:52;100074.75;;;14.67;47.97
12781;BME280;6454;43.304;24.344;2023-04-27T12:42:19;100192.06;;;15.51;47.85
12781;BME280;6454;43.304;24.344;2023-04-27T12:44:48;100195.69;;;15.37;48.11
12781;BME280;6454;43.304;24.344;2023-04-27T12:47:15;100214.78;;;15.29;48.02
12781;BME280;6454;43.304;24.344;2023-04-27T12:49:42;100154.19;;;14.88;47.03
12781;BME280;6454;43.304;24.344;2023-04-27T12:52:09;100099.72;;;14.52;47.27
12781;BME280;6454;43.304;24.344;2023-04-27T12:54:37;100198.38;;;15.20;47.26
12781;BME280;6454;43.304;24.344;2023-04-27T12:57:04;100011.50;;;14.03;48.17